El Trompillo Airport

SLET · Santa Cruz, Bolivia

Storia di METAR SLET · El Trompillo Airport

Di seguito sono riportati i METAR degli ultimi giorni. Seleziona un anno per sfogliare i METAR più vecchi, dall'anno 2007 in poi.

28 febbraio 2024

Tempo Codice Tempo meteorologico Temp. Vista Base nuvolosa Vento METAR/SPECI
09:00
V
29 °C 10 km+ - 320° 320° 14 - 26 kt METAR SLET 281300Z 32014G26KT 9999 NSC 29/22 Q1012
08:00
V
27 °C 10 km+ - 320° 320° 12 - 23 kt METAR SLET 281200Z 32012G23KT 9999 NSC 27/22 Q1012
07:00
V
25 °C 10 km+ - 320° 320° 13 kt METAR SLET 281100Z 32013KT 9999 NSC 25/22 Q1011
06:00
V
24 °C 10 km+ - 330° 330° 13 kt METAR SLET 281000Z 33013KT 9999 NSC 24/23 Q1011

27 febbraio 2024

Tempo Codice Tempo meteorologico Temp. Vista Base nuvolosa Vento METAR/SPECI
19:00
V
29 °C 10 km+ 20.000 ft 330° 330° 14 kt METAR SLET 272300Z 33014KT 9999 FEW017 FEW025TCU BKN200 29/21 Q1010
18:00
V
31 °C 10 km+ - 310° 310° 13 - 24 kt METAR SLET 272200Z 31013G24KT 9999 FEW017 SCT200 31/22 Q1009
17:00
V
32 °C 10 km+ - 320° 320° 16 - 27 kt METAR SLET 272100Z 32016G27KT 9999 FEW017 SCT200 32/22 Q1009
16:00
V
32 °C 10 km+ - 310° 310° 17 - 29 kt METAR SLET 272000Z 31017G29KT 9999 FEW020 SCT200 32/22 Q1009
15:00
V
33 °C 10 km+ - 310° 310° 18 - 30 kt METAR SLET 271900Z 31018G30KT 9999 SCT020 SCT200 33/22 Q1010
14:00
V
33 °C 10 km+ - 330° 330° 20 - 32 kt METAR SLET 271800Z 33020G32KT 9999 FEW020 SCT200 33/22 Q1011
13:00
V
32 °C 10 km+ - 330° 330° 18 - 30 kt METAR SLET 271700Z 33018G30KT 9999 FEW017 SCT200 32/22 Q1012
12:00
V
32 °C 10 km+ - 320° 320° 20 - 32 kt METAR SLET 271600Z 32020G32KT 9999 FEW017 SCT200 32/23 Q1013
11:00
V
30 °C 10 km+ - 330° 330° 16 - 28 kt METAR SLET 271500Z 33016G28KT 9999 NSC 30/23 Q1013
10:00
V
29 °C 10 km+ - 320° 320° 15 - 26 kt METAR SLET 271400Z 32015G26KT 9999 NSC 29/23 Q1013
09:00
V
27 °C 10 km+ - 330° 330° 15 - 26 kt METAR SLET 271300Z 33015G26KT 9999 NSC 27/23 Q1012
08:00
V
25 °C 10 km+ 20.000 ft 320° 320° 13 - 23 kt METAR SLET 271200Z 32013G23KT 9999 FEW006 BKN200 25/22 Q1012
07:00
V
23 °C 10 km+ 20.000 ft 310° 310° 14 kt METAR SLET 271100Z 31014KT 9999 FEW005 BKN200 23/21 Q1012
06:00
V
23 °C 10 km+ - 300° 300° 10 kt METAR SLET 271000Z 30010KT 9999 FEW080 SCT200 23/22 Q1011

26 febbraio 2024

Tempo Codice Tempo meteorologico Temp. Vista Base nuvolosa Vento METAR/SPECI
19:00
V
28 °C 10 km+ - 320° 320° 8 kt METAR SLET 262300Z 32008KT 9999 FEW020 SCT200 28/22 Q1011
18:00
V
29 °C 10 km+ - 320° 320° 12 kt METAR SLET 262200Z 32012KT 9999 FEW023 SCT200 29/22 Q1011
17:00
V
30 °C 10 km+ - 340° 340° 13 kt METAR SLET 262100Z 34013KT 9999 FEW023 SCT200 30/22 Q1011
16:00
V
31 °C 10 km+ - 340° 340° 13 kt METAR SLET 262000Z 34013KT 9999 FEW023 31/22 Q1012
15:00
V
31 °C 10 km+ - 360° 360° 13 kt METAR SLET 261900Z 36013KT 9999 FEW023 31/22 Q1013
14:00
V
31 °C 10 km+ - 360° 360° 13 kt METAR SLET 261800Z 36013KT 9999 FEW023 SCT080 31/22 Q1014
13:00
V
31 °C 10 km+ - 330° 330° 13 kt METAR SLET 261700Z 33013KT 9999 FEW023 SCT080 31/23 Q1015
12:00
V
29 °C 10 km+ - 310° 310° 13 kt METAR SLET 261600Z 31013KT 9999 SCT020 SCT080 29/23 Q1016
11:00
V
29 °C 10 km+ - 320° 320° 9 kt METAR SLET 261500Z 32009KT 9999 SCT020 SCT080 29/23 Q1017
10:00
V
29 °C 10 km+ - 320° 320° 9 kt METAR SLET 261400Z 32009KT 9999 SCT020 SCT200 29/23 Q1017
09:00
V
27 °C 10 km+ - 320° 320° 9 kt METAR SLET 261300Z 32009KT 9999 FEW023 SCT080 27/24 Q1017
08:00
V
25 °C 10 km+ - 280° 280° 4 kt METAR SLET 261200Z 28004KT 9999 SCT023 SCT080 25/23 Q1017
07:00
V
23 °C 10 km+ - Var Var 2 kt METAR SLET 261100Z VRB02KT 9999 FEW023 SCT080 23/22 Q1016
06:00
V
23 °C 10 km+ 20.000 ft 250° 250° 4 kt METAR SLET 261000Z 25004KT 9999 FEW023 SCT070 BKN200 23/22 Q1015